sensor_id;sensor_type;location;lat;lon;timestamp;pressure;altitude;pressure_sealevel;temperature;humidity
69909;BME280;57190;47.918;8.112;2023-07-29T00:00:39;90692.81;;;14.56;89.11
69909;BME280;57190;47.918;8.112;2023-07-29T00:03:05;90698.19;;;14.56;89.24
69909;BME280;57190;47.918;8.112;2023-07-29T00:05:31;90694.22;;;14.54;89.13
69909;BME280;57190;47.918;8.112;2023-07-29T00:07:56;90680.88;;;14.49;89.18
69909;BME280;57190;47.918;8.112;2023-07-29T00:10:22;90685.56;;;14.43;89.30
69909;BME280;57190;47.918;8.112;2023-07-29T00:12:47;90675.09;;;14.41;89.36
69909;BME280;57190;47.918;8.112;2023-07-29T00:15:13;90680.66;;;14.45;89.69
69909;BME280;57190;47.918;8.112;2023-07-29T00:17:39;90676.13;;;14.45;90.04
69909;BME280;57190;47.918;8.112;2023-07-29T00:20:06;90665.66;;;14.44;89.18
69909;BME280;57190;47.918;8.112;2023-07-29T00:22:31;90660.09;;;14.40;89.42
69909;BME280;57190;47.918;8.112;2023-07-29T00:24:57;90653.63;;;14.41;89.51
69909;BME280;57190;47.918;8.112;2023-07-29T00:27:23;90656.03;;;14.43;89.95
69909;BME280;57190;47.918;8.112;2023-07-29T00:29:49;90654.13;;;14.43;89.56
69909;BME280;57190;47.918;8.112;2023-07-29T00:32:14;90665.88;;;14.48;89.95
69909;BME280;57190;47.918;8.112;2023-07-29T00:34:40;90663.41;;;14.51;89.98
69909;BME280;57190;47.918;8.112;2023-07-29T00:37:05;90663.31;;;14.56;89.98
69909;BME280;57190;47.918;8.112;2023-07-29T00:39:32;90657.72;;;14.53;89.66
69909;BME280;57190;47.918;8.112;2023-07-29T00:41:57;90654.25;;;14.52;89.57
69909;BME280;57190;47.918;8.112;2023-07-29T00:44:23;90663.69;;;14.50;89.94
69909;BME280;57190;47.918;8.112;2023-07-29T00:46:50;90655.44;;;14.46;89.73
69909;BME280;57190;47.918;8.112;2023-07-29T00:49:17;90664.28;;;14.46;89.92
69909;BME280;57190;47.918;8.112;2023-07-29T00:51:43;90654.34;;;14.47;90.34
69909;BME280;57190;47.918;8.112;2023-07-29T00:54:09;90645.97;;;14.49;89.81
69909;BME280;57190;47.918;8.112;2023-07-29T00:56:34;90649.19;;;14.51;90.03
69909;BME280;57190;47.918;8.112;2023-07-29T00:59:01;90646.19;;;14.52;89.98
69909;BME280;57190;47.918;8.112;2023-07-29T01:01:31;90646.19;;;14.52;90.07
69909;BME280;57190;47.918;8.112;2023-07-29T01:03:57;90642.13;;;14.55;89.63
69909;BME280;57190;47.918;8.112;2023-07-29T01:06:42;90649.88;;;14.56;89.62
69909;BME280;57190;47.918;8.112;2023-07-29T01:12:08;90638.38;;;14.56;89.37
69909;BME280;57190;47.918;8.112;2023-07-29T01:14:44;90637.03;;;14.53;89.69
69909;BME280;57190;47.918;8.112;2023-07-29T01:17:22;90635.44;;;14.52;89.50
69909;BME280;57190;47.918;8.112;2023-07-29T01:20:06;90634.66;;;14.52;89.35
69909;BME280;57190;47.918;8.112;2023-07-29T01:22:34;90629.72;;;14.59;90.09
69909;BME280;57190;47.918;8.112;2023-07-29T01:25:00;90624.53;;;14.62;90.13
69909;BME280;57190;47.918;8.112;2023-07-29T01:27:25;90624.75;;;14.66;90.13
69909;BME280;57190;47.918;8.112;2023-07-29T01:29:52;90632.44;;;14.73;90.14
69909;BME280;57190;47.918;8.112;2023-07-29T01:35:03;90621.38;;;14.74;90.15
69909;BME280;57190;47.918;8.112;2023-07-29T01:37:32;90617.03;;;14.78;90.25
69909;BME280;57190;47.918;8.112;2023-07-29T01:39:59;90622.72;;;14.77;89.98
69909;BME280;57190;47.918;8.112;2023-07-29T01:42:26;90616.22;;;14.78;90.18
69909;BME280;57190;47.918;8.112;2023-07-29T01:44:52;90624.47;;;14.82;90.62
69909;BME280;57190;47.918;8.112;2023-07-29T01:47:18;90627.66;;;14.84;90.13
69909;BME280;57190;47.918;8.112;2023-07-29T01:49:43;90613.72;;;14.82;90.32
69909;BME280;57190;47.918;8.112;2023-07-29T01:52:09;90625.38;;;14.77;90.33
69909;BME280;57190;47.918;8.112;2023-07-29T01:54:34;90625.66;;;14.75;90.23
69909;BME280;57190;47.918;8.112;2023-07-29T01:57:00;90620.03;;;14.77;90.57
69909;BME280;57190;47.918;8.112;2023-07-29T01:59:25;90621.59;;;14.78;90.45
69909;BME280;57190;47.918;8.112;2023-07-29T02:01:51;90625.09;;;14.78;90.55
69909;BME280;57190;47.918;8.112;2023-07-29T02:04:16;90629.06;;;14.81;90.45
69909;BME280;57190;47.918;8.112;2023-07-29T02:06:42;90621.78;;;14.82;90.29
69909;BME280;57190;47.918;8.112;2023-07-29T02:09:07;90627.66;;;14.84;90.61
69909;BME280;57190;47.918;8.112;2023-07-29T02:11:33;90618.44;;;14.90;90.75
69909;BME280;57190;47.918;8.112;2023-07-29T02:13:58;90620.50;;;14.93;90.37
69909;BME280;57190;47.918;8.112;2023-07-29T02:16:24;90621.31;;;14.93;90.48
69909;BME280;57190;47.918;8.112;2023-07-29T02:18:49;90617.72;;;14.98;90.24
69909;BME280;57190;47.918;8.112;2023-07-29T02:21:15;90625.16;;;15.01;90.43
69909;BME280;57190;47.918;8.112;2023-07-29T02:23:41;90622.47;;;15.01;90.30
69909;BME280;57190;47.918;8.112;2023-07-29T02:26:06;90624.88;;;15.03;90.60
69909;BME280;57190;47.918;8.112;2023-07-29T02:28:32;90619.22;;;15.04;90.71
69909;BME280;57190;47.918;8.112;2023-07-29T02:31:21;90625.56;;;15.08;90.27
69909;BME280;57190;47.918;8.112;2023-07-29T02:33:47;90626.56;;;15.13;90.28
69909;BME280;57190;47.918;8.112;2023-07-29T02:36:13;90630.53;;;15.15;90.48
69909;BME280;57190;47.918;8.112;2023-07-29T02:38:39;90626.56;;;15.13;90.72
69909;BME280;57190;47.918;8.112;2023-07-29T02:41:05;90628.94;;;15.14;90.62
69909;BME280;57190;47.918;8.112;2023-07-29T02:43:31;90631.63;;;15.14;90.74
69909;BME280;57190;47.918;8.112;2023-07-29T02:45:57;90626.75;;;15.16;90.73
69909;BME280;57190;47.918;8.112;2023-07-29T02:48:22;90623.16;;;15.21;90.90
69909;BME280;57190;47.918;8.112;2023-07-29T02:50:48;90626.38;;;15.23;90.61
69909;BME280;57190;47.918;8.112;2023-07-29T02:53:13;90626.84;;;15.25;90.90
69909;BME280;57190;47.918;8.112;2023-07-29T02:55:40;90622.56;;;15.24;91.16
69909;BME280;57190;47.918;8.112;2023-07-29T02:58:06;90616.59;;;15.27;90.83
69909;BME280;57190;47.918;8.112;2023-07-29T03:00:32;90620.88;;;15.28;90.81
69909;BME280;57190;47.918;8.112;2023-07-29T03:02:58;90616.91;;;15.25;90.84
69909;BME280;57190;47.918;8.112;2023-07-29T03:05:26;90622.56;;;15.24;90.78
69909;BME280;57190;47.918;8.112;2023-07-29T03:07:52;90618.31;;;15.23;90.70
69909;BME280;57190;47.918;8.112;2023-07-29T03:10:17;90619.59;;;15.25;90.99
69909;BME280;57190;47.918;8.112;2023-07-29T03:12:43;90631.63;;;15.28;90.88
69909;BME280;57190;47.918;8.112;2023-07-29T03:15:08;90613.31;;;15.30;90.50
69909;BME280;57190;47.918;8.112;2023-07-29T03:17:34;90604.63;;;15.33;90.84
69909;BME280;57190;47.918;8.112;2023-07-29T03:20:00;90603.03;;;15.32;89.99
69909;BME280;57190;47.918;8.112;2023-07-29T03:22:25;90608.53;;;15.27;90.22
69909;BME280;57190;47.918;8.112;2023-07-29T03:24:51;90614.22;;;15.25;90.48
69909;BME280;57190;47.918;8.112;2023-07-29T03:27:16;90598.38;;;15.24;90.92
69909;BME280;57190;47.918;8.112;2023-07-29T03:29:42;90599.19;;;15.24;90.74
69909;BME280;57190;47.918;8.112;2023-07-29T03:32:07;90598.59;;;15.28;90.73
69909;BME280;57190;47.918;8.112;2023-07-29T03:34:33;90595.69;;;15.24;90.82
69909;BME280;57190;47.918;8.112;2023-07-29T03:37:00;90604.06;;;15.22;90.81
69909;BME280;57190;47.918;8.112;2023-07-29T03:39:26;90607.25;;;15.24;90.78
69909;BME280;57190;47.918;8.112;2023-07-29T03:41:52;90611.03;;;15.23;90.66
69909;BME280;57190;47.918;8.112;2023-07-29T03:44:17;90605.78;;;15.18;90.44
69909;BME280;57190;47.918;8.112;2023-07-29T03:46:46;90596.72;;;15.14;90.46
69909;BME280;57190;47.918;8.112;2023-07-29T03:49:11;90601.28;;;15.14;90.46
69909;BME280;57190;47.918;8.112;2023-07-29T03:51:37;90602.38;;;15.13;90.22
69909;BME280;57190;47.918;8.112;2023-07-29T03:54:03;90601.19;;;15.19;90.47
69909;BME280;57190;47.918;8.112;2023-07-29T03:56:28;90590.13;;;15.20;90.26
69909;BME280;57190;47.918;8.112;2023-07-29T03:59:02;90592.63;;;15.17;90.46
69909;BME280;57190;47.918;8.112;2023-07-29T04:01:28;90589.34;;;15.20;90.73
69909;BME280;57190;47.918;8.112;2023-07-29T04:03:53;90582.88;;;15.21;90.11
69909;BME280;57190;47.918;8.112;2023-07-29T04:06:20;90587.63;;;15.24;90.51
69909;BME280;57190;47.918;8.112;2023-07-29T04:08:45;90582.38;;;15.19;90.22
69909;BME280;57190;47.918;8.112;2023-07-29T04:11:11;90585.78;;;15.11;90.25
69909;BME280;57190;47.918;8.112;2023-07-29T04:13:37;90587.66;;;15.10;90.08
69909;BME280;57190;47.918;8.112;2023-07-29T04:16:06;90590.06;;;15.12;90.15
69909;BME280;57190;47.918;8.112;2023-07-29T04:18:32;90599.19;;;15.11;90.67
69909;BME280;57190;47.918;8.112;2023-07-29T04:20:58;90593.53;;;15.12;90.15
69909;BME280;57190;47.918;8.112;2023-07-29T04:23:23;90590.84;;;15.12;89.87
69909;BME280;57190;47.918;8.112;2023-07-29T04:25:49;90590.56;;;15.14;90.24
69909;BME280;57190;47.918;8.112;2023-07-29T04:28:15;90583.19;;;15.05;90.18
69909;BME280;57190;47.918;8.112;2023-07-29T04:30:41;90589.34;;;15.06;90.30
69909;BME280;57190;47.918;8.112;2023-07-29T04:33:07;90592.84;;;15.06;90.21
69909;BME280;57190;47.918;8.112;2023-07-29T04:35:32;90596.00;;;15.08;90.41
69909;BME280;57190;47.918;8.112;2023-07-29T04:37:58;90593.25;;;15.14;90.35
69909;BME280;57190;47.918;8.112;2023-07-29T04:40:23;90610.25;;;15.23;89.38
69909;BME280;57190;47.918;8.112;2023-07-29T04:42:50;90595.69;;;15.24;89.67
69909;BME280;57190;47.918;8.112;2023-07-29T04:45:16;90611.72;;;15.29;89.41
69909;BME280;57190;47.918;8.112;2023-07-29T04:47:41;90610.09;;;15.42;89.38
69909;BME280;57190;47.918;8.112;2023-07-29T04:50:07;90617.44;;;15.50;89.42
69909;BME280;57190;47.918;8.112;2023-07-29T04:52:33;90608.88;;;15.48;89.73
69909;BME280;57190;47.918;8.112;2023-07-29T04:54:59;90611.56;;;15.48;89.29
69909;BME280;57190;47.918;8.112;2023-07-29T04:57:24;90609.97;;;15.47;89.86
69909;BME280;57190;47.918;8.112;2023-07-29T04:59:50;90608.28;;;15.51;89.40
69909;BME280;57190;47.918;8.112;2023-07-29T05:02:15;90610.25;;;15.60;89.91
69909;BME280;57190;47.918;8.112;2023-07-29T05:04:41;90626.44;;;15.68;89.59
69909;BME280;57190;47.918;8.112;2023-07-29T05:07:06;90630.13;;;15.72;89.63
69909;BME280;57190;47.918;8.112;2023-07-29T05:09:32;90629.69;;;15.79;89.39
69909;BME280;57190;47.918;8.112;2023-07-29T05:11:57;90633.69;;;15.82;90.11
69909;BME280;57190;47.918;8.112;2023-07-29T05:14:23;90625.84;;;15.85;90.26
69909;BME280;57190;47.918;8.112;2023-07-29T05:16:48;90629.41;;;15.81;91.08
69909;BME280;57190;47.918;8.112;2023-07-29T05:19:14;90624.50;;;15.83;91.17
69909;BME280;57190;47.918;8.112;2023-07-29T05:21:40;90622.34;;;15.85;91.40
69909;BME280;57190;47.918;8.112;2023-07-29T05:24:06;90620.63;;;15.89;90.94
69909;BME280;57190;47.918;8.112;2023-07-29T05:26:31;90622.88;;;15.96;90.61
69909;BME280;57190;47.918;8.112;2023-07-29T05:28:57;90616.22;;;15.93;90.78
69909;BME280;57190;47.918;8.112;2023-07-29T05:31:22;90628.25;;;15.96;91.03
69909;BME280;57190;47.918;8.112;2023-07-29T05:33:48;90620.69;;;15.98;91.20
69909;BME280;57190;47.918;8.112;2023-07-29T05:36:14;90623.06;;;15.99;90.84
69909;BME280;57190;47.918;8.112;2023-07-29T05:39:13;90625.97;;;16.03;91.01
69909;BME280;57190;47.918;8.112;2023-07-29T05:41:38;90614.75;;;16.10;90.67
69909;BME280;57190;47.918;8.112;2023-07-29T05:44:04;90618.84;;;16.30;89.92
69909;BME280;57190;47.918;8.112;2023-07-29T05:46:30;90623.09;;;16.54;89.10
69909;BME280;57190;47.918;8.112;2023-07-29T05:48:55;90632.84;;;16.72;88.73
69909;BME280;57190;47.918;8.112;2023-07-29T05:51:20;90630.31;;;16.76;88.33
69909;BME280;57190;47.918;8.112;2023-07-29T05:53:46;90631.78;;;16.82;88.10
69909;BME280;57190;47.918;8.112;2023-07-29T05:56:12;90625.59;;;16.81;87.58
69909;BME280;57190;47.918;8.112;2023-07-29T05:58:37;90617.69;;;16.85;87.04
69909;BME280;57190;47.918;8.112;2023-07-29T06:01:03;90628.03;;;16.92;86.99
69909;BME280;57190;47.918;8.112;2023-07-29T06:03:28;90624.09;;;16.98;86.93
69909;BME280;57190;47.918;8.112;2023-07-29T06:05:54;90619.22;;;17.00;86.64
69909;BME280;57190;47.918;8.112;2023-07-29T06:08:19;90620.66;;;17.06;84.30
69909;BME280;57190;47.918;8.112;2023-07-29T06:10:45;90623.03;;;17.08;84.65
69909;BME280;57190;47.918;8.112;2023-07-29T06:13:10;90610.19;;;17.05;85.53
69909;BME280;57190;47.918;8.112;2023-07-29T06:15:36;90624.44;;;17.05;84.91
69909;BME280;57190;47.918;8.112;2023-07-29T06:18:01;90632.22;;;17.07;84.67
69909;BME280;57190;47.918;8.112;2023-07-29T06:20:27;90640.00;;;17.08;84.32
69909;BME280;57190;47.918;8.112;2023-07-29T06:22:52;90625.41;;;17.09;84.80
69909;BME280;57190;47.918;8.112;2023-07-29T06:25:18;90635.38;;;17.09;83.73
69909;BME280;57190;47.918;8.112;2023-07-29T06:27:43;90629.38;;;17.12;83.27
69909;BME280;57190;47.918;8.112;2023-07-29T06:30:09;90624.66;;;17.18;83.05
69909;BME280;57190;47.918;8.112;2023-07-29T06:32:34;90609.91;;;17.24;82.92
69909;BME280;57190;47.918;8.112;2023-07-29T06:35:00;90621.34;;;17.38;82.02
69909;BME280;57190;47.918;8.112;2023-07-29T06:37:25;90613.00;;;17.57;81.66
69909;BME280;57190;47.918;8.112;2023-07-29T06:39:51;90612.06;;;17.71;81.16
69909;BME280;57190;47.918;8.112;2023-07-29T06:42:16;90610.31;;;17.84;80.69
69909;BME280;57190;47.918;8.112;2023-07-29T06:44:42;90599.19;;;17.85;80.36
69909;BME280;57190;47.918;8.112;2023-07-29T06:47:07;90601.91;;;17.76;79.26
69909;BME280;57190;47.918;8.112;2023-07-29T06:49:33;90601.09;;;17.76;79.39
69909;BME280;57190;47.918;8.112;2023-07-29T06:51:58;90619.19;;;17.75;79.02
69909;BME280;57190;47.918;8.112;2023-07-29T06:54:25;90619.34;;;17.79;79.05
69909;BME280;57190;47.918;8.112;2023-07-29T06:56:53;90601.91;;;17.85;76.96
69909;BME280;57190;47.918;8.112;2023-07-29T06:59:19;90596.66;;;17.89;77.04
69909;BME280;57190;47.918;8.112;2023-07-29T07:01:44;90623.81;;;17.84;77.36
69909;BME280;57190;47.918;8.112;2023-07-29T07:04:10;90638.25;;;17.70;78.76
69909;BME280;57190;47.918;8.112;2023-07-29T07:06:35;90654.81;;;17.28;79.77
69909;BME280;57190;47.918;8.112;2023-07-29T07:09:01;90641.81;;;16.90;83.90
69909;BME280;57190;47.918;8.112;2023-07-29T07:11:26;90655.44;;;16.62;85.09
69909;BME280;57190;47.918;8.112;2023-07-29T07:13:52;90647.13;;;16.50;86.56
69909;BME280;57190;47.918;8.112;2023-07-29T07:16:17;90647.13;;;16.50;87.71
69909;BME280;57190;47.918;8.112;2023-07-29T07:18:43;90652.59;;;16.59;87.88
69909;BME280;57190;47.918;8.112;2023-07-29T07:21:09;90650.41;;;16.70;88.10
69909;BME280;57190;47.918;8.112;2023-07-29T07:23:34;90644.59;;;16.76;89.04
69909;BME280;57190;47.918;8.112;2023-07-29T07:26:00;90645.44;;;16.86;89.51
69909;BME280;57190;47.918;8.112;2023-07-29T07:28:25;90629.66;;;17.02;89.16
69909;BME280;57190;47.918;8.112;2023-07-29T07:30:51;90637.63;;;17.16;89.02
69909;BME280;57190;47.918;8.112;2023-07-29T07:33:16;90643.63;;;17.12;89.53
69909;BME280;57190;47.918;8.112;2023-07-29T07:35:42;90641.41;;;17.06;89.23
69909;BME280;57190;47.918;8.112;2023-07-29T07:38:08;90639.00;;;17.04;89.19
69909;BME280;57190;47.918;8.112;2023-07-29T07:40:35;90645.38;;;17.08;89.55
69909;BME280;57190;47.918;8.112;2023-07-29T07:43:01;90644.63;;;17.17;89.11
69909;BME280;57190;47.918;8.112;2023-07-29T07:45:27;90651.44;;;17.14;89.02
69909;BME280;57190;47.918;8.112;2023-07-29T07:47:53;90651.72;;;17.12;89.22
69909;BME280;57190;47.918;8.112;2023-07-29T07:50:19;90646.47;;;17.07;89.09
69909;BME280;57190;47.918;8.112;2023-07-29T07:52:44;90644.91;;;17.06;88.29
69909;BME280;57190;47.918;8.112;2023-07-29T07:55:10;90631.47;;;17.24;87.21
69909;BME280;57190;47.918;8.112;2023-07-29T07:57:35;90635.19;;;17.46;87.04
69909;BME280;57190;47.918;8.112;2023-07-29T08:00:01;90628.53;;;17.60;86.83
69909;BME280;57190;47.918;8.112;2023-07-29T08:02:26;90623.31;;;17.73;87.26
69909;BME280;57190;47.918;8.112;2023-07-29T08:04:52;90631.56;;;17.85;85.79
69909;BME280;57190;47.918;8.112;2023-07-29T08:10:38;90635.53;;;17.70;87.69
69909;BME280;57190;47.918;8.112;2023-07-29T08:13:05;90632.53;;;17.72;87.90
69909;BME280;57190;47.918;8.112;2023-07-29T08:15:30;90641.41;;;17.81;87.68
69909;BME280;57190;47.918;8.112;2023-07-29T08:17:56;90640.31;;;17.91;86.45
69909;BME280;57190;47.918;8.112;2023-07-29T08:20:21;90638.09;;;18.02;85.36
69909;BME280;57190;47.918;8.112;2023-07-29T08:22:47;90647.16;;;18.15;85.40
69909;BME280;57190;47.918;8.112;2023-07-29T08:25:12;90633.50;;;18.11;85.70
69909;BME280;57190;47.918;8.112;2023-07-29T08:27:38;90640.34;;;18.09;86.24
69909;BME280;57190;47.918;8.112;2023-07-29T08:30:04;90638.75;;;18.25;85.03
69909;BME280;57190;47.918;8.112;2023-07-29T08:32:29;90635.72;;;18.27;84.34
69909;BME280;57190;47.918;8.112;2023-07-29T08:34:55;90642.19;;;18.43;83.18
69909;BME280;57190;47.918;8.112;2023-07-29T08:37:20;90633.78;;;18.53;84.79
69909;BME280;57190;47.918;8.112;2023-07-29T08:39:46;90640.59;;;18.60;82.37
69909;BME280;57190;47.918;8.112;2023-07-29T08:42:12;90643.50;;;18.46;81.44
69909;BME280;57190;47.918;8.112;2023-07-29T08:44:42;90647.94;;;18.50;81.51
69909;BME280;57190;47.918;8.112;2023-07-29T08:47:09;90657.25;;;18.70;81.21
69909;BME280;57190;47.918;8.112;2023-07-29T08:49:35;90651.06;;;18.79;81.28
69909;BME280;57190;47.918;8.112;2023-07-29T08:52:04;90647.69;;;18.82;79.79
69909;BME280;57190;47.918;8.112;2023-07-29T08:54:30;90645.44;;;19.01;78.87
